EGTE/EXT METAR and TAF weather

Enter ICAO airport designator
Station Type Date Time Source
EGTE METAR 2018/11/15 06:20 UTC NOAA

EGTE 150620Z 13005KT 9999 SCT017 11/09 Q1018


Station Type Date Time Source
EGTE Decoded METAR 2018/11/15 06:20 UTC NOAA

Exeter Airport, United Kingdom (EGTE) 50-44N 003-25W
Nov 15, 2018 - 01:20 AM EST / 2018.11.15 0620 UTC
Wind: from the SE (130 degrees) at 6 MPH (5 KT):0
Visibility: greater than 7 mile(s):0
Sky conditions: partly cloudy
Temperature: 51 F (11 C)
Dew Point: 48 F (9 C)
Relative Humidity: 87%
Pressure (altimeter): 30.06 in. Hg (1018 hPa)
ob: EGTE 150620Z 13005KT 9999 SCT017 11/09 Q1018
cycle: 6

Station Type Date Time Source
EGTE TAF 2012/04/19 12:15 UTC NOAA

TAF TAF EGTE 191401Z 1912/1924 31016KT 9999 SCT030 SCT035 PROB40
TEMPO 1915/1918 7000 SHRA BKN014


Example: see airport list